createdAt,value
2022-11-25T00:01:42.885Z,20.79
2022-11-25T00:03:47.513Z,20.78
2022-11-25T00:05:51.854Z,20.76
2022-11-25T00:07:56.289Z,20.76
2022-11-25T00:10:00.819Z,20.75
2022-11-25T00:12:05.184Z,20.74
2022-11-25T00:14:09.522Z,20.73
2022-11-25T00:16:14.017Z,20.72
2022-11-25T00:18:18.568Z,20.7
2022-11-25T00:20:22.973Z,20.67
2022-11-25T00:22:27.324Z,20.65
2022-11-25T00:24:31.695Z,20.64
2022-11-25T00:26:36.496Z,20.64
2022-11-25T00:28:40.848Z,20.63
2022-11-25T00:30:45.232Z,20.62
2022-11-25T00:32:49.613Z,20.61
2022-11-25T00:34:54.047Z,20.58
2022-11-25T00:36:58.419Z,20.57
2022-11-25T00:39:02.786Z,20.55
2022-11-25T00:41:07.150Z,20.53
2022-11-25T00:43:11.488Z,20.52
2022-11-25T00:45:15.852Z,20.5
2022-11-25T00:47:20.190Z,20.5
2022-11-25T00:49:24.570Z,20.49
2022-11-25T00:51:28.958Z,20.49
2022-11-25T00:53:33.313Z,20.49
2022-11-25T00:55:37.653Z,20.47
2022-11-25T00:57:41.988Z,20.47
2022-11-25T00:59:46.346Z,20.46
2022-11-25T01:01:50.767Z,20.45
2022-11-25T01:03:55.299Z,20.45
2022-11-25T01:05:59.680Z,20.44
2022-11-25T01:08:04.026Z,20.42
2022-11-25T01:10:08.415Z,20.4
2022-11-25T01:12:12.765Z,20.41
2022-11-25T01:14:17.139Z,20.39
2022-11-25T01:16:21.546Z,20.4
2022-11-25T01:18:26.050Z,20.39
2022-11-25T01:20:30.423Z,20.38
2022-11-25T01:22:34.811Z,20.37
2022-11-25T01:24:39.270Z,20.37
2022-11-25T01:26:43.727Z,20.35
2022-11-25T01:28:48.059Z,20.31
2022-11-25T01:30:52.524Z,20.31
2022-11-25T01:32:56.898Z,20.29
2022-11-25T01:35:01.238Z,20.27
2022-11-25T01:37:05.622Z,20.26
2022-11-25T01:39:09.993Z,20.25
2022-11-25T01:41:14.360Z,20.24
2022-11-25T01:43:18.724Z,20.24
2022-11-25T01:45:25.523Z,20.23
2022-11-25T01:47:32.501Z,20.22
2022-11-25T01:49:36.911Z,20.22
2022-11-25T01:51:41.371Z,20.21
2022-11-25T01:53:45.763Z,20.2
2022-11-25T01:55:50.118Z,20.19
2022-11-25T01:57:54.538Z,20.17
2022-11-25T01:59:58.937Z,20.18
2022-11-25T02:02:03.504Z,20.16
2022-11-25T02:04:08.114Z,20.15
2022-11-25T02:06:12.565Z,20.14
2022-11-25T02:08:16.979Z,20.12
2022-11-25T02:10:21.402Z,20.11
2022-11-25T02:12:25.830Z,20.11
2022-11-25T02:14:30.239Z,20.1
2022-11-25T02:16:34.714Z,20.11
2022-11-25T02:18:39.489Z,20.1
2022-11-25T02:20:43.872Z,20.08
2022-11-25T02:22:48.310Z,20.08
2022-11-25T02:24:52.741Z,20.07
2022-11-25T02:26:57.184Z,20.07
2022-11-25T02:29:01.646Z,20.07
2022-11-25T02:31:06.119Z,20.06
2022-11-25T02:33:10.525Z,20.03
2022-11-25T02:35:14.881Z,20.03
2022-11-25T02:37:19.244Z,20.03
2022-11-25T02:39:23.617Z,20.03
2022-11-25T02:41:27.964Z,20.01
2022-11-25T02:43:32.319Z,20
2022-11-25T02:45:36.753Z,20.02
2022-11-25T02:47:41.405Z,20.01
2022-11-25T02:49:45.743Z,20
2022-11-25T02:51:50.072Z,19.99
2022-11-25T02:53:54.449Z,19.99
2022-11-25T02:55:58.788Z,19.98
2022-11-25T02:58:03.165Z,19.97
2022-11-25T03:00:07.517Z,19.94
2022-11-25T03:02:12.077Z,19.92
2022-11-25T03:04:16.711Z,19.9
2022-11-25T03:06:21.084Z,19.89
2022-11-25T03:08:25.470Z,19.86
2022-11-25T03:10:29.852Z,19.85
2022-11-25T03:12:34.224Z,19.84
2022-11-25T03:14:38.621Z,19.83
2022-11-25T03:16:43.080Z,19.8
2022-11-25T03:18:47.793Z,19.79
2022-11-25T03:20:52.179Z,19.76
2022-11-25T03:22:56.495Z,19.74
2022-11-25T03:25:00.867Z,19.73
2022-11-25T03:27:05.278Z,19.72
2022-11-25T03:29:09.652Z,19.72
2022-11-25T03:31:14.123Z,19.71
2022-11-25T03:33:18.706Z,19.72
2022-11-25T03:35:23.142Z,19.7
2022-11-25T03:37:27.555Z,19.69
2022-11-25T03:39:31.982Z,19.68
2022-11-25T03:41:36.331Z,19.67
2022-11-25T03:43:40.673Z,19.67
2022-11-25T03:45:45.082Z,19.65
2022-11-25T03:47:49.750Z,19.65
2022-11-25T03:49:54.132Z,19.64
2022-11-25T03:51:58.491Z,19.63
2022-11-25T03:54:02.882Z,19.62
2022-11-25T03:56:07.241Z,19.61
2022-11-25T03:58:11.606Z,19.61
2022-11-25T04:00:16.245Z,19.62
2022-11-25T04:02:20.688Z,19.62
2022-11-25T04:04:25.251Z,19.62
2022-11-25T04:06:29.601Z,19.63
2022-11-25T04:08:33.950Z,19.62
2022-11-25T04:10:38.307Z,19.61
2022-11-25T04:12:42.649Z,19.6
2022-11-25T04:14:47.018Z,19.61
2022-11-25T04:16:51.562Z,19.62
2022-11-25T04:18:56.398Z,19.61
2022-11-25T04:21:00.716Z,19.61
2022-11-25T04:23:05.085Z,19.58
2022-11-25T04:25:09.438Z,19.58
2022-11-25T04:27:13.769Z,19.58
2022-11-25T04:29:18.145Z,19.56
2022-11-25T04:31:22.488Z,19.55
2022-11-25T04:33:26.852Z,19.53
2022-11-25T04:35:31.180Z,19.53
2022-11-25T04:37:35.545Z,19.51
2022-11-25T04:39:39.920Z,19.51
2022-11-25T04:41:44.311Z,19.51
2022-11-25T04:43:48.693Z,19.5
2022-11-25T04:48:27.654Z,19.5
2022-11-25T04:50:32.000Z,19.49
2022-11-25T04:52:36.322Z,19.49
2022-11-25T04:54:40.671Z,19.49
2022-11-25T04:56:45.054Z,19.49
2022-11-25T04:58:49.385Z,19.48
2022-11-25T05:00:53.778Z,19.47
2022-11-25T05:02:58.323Z,19.46
2022-11-25T05:05:02.720Z,19.43
2022-11-25T05:07:07.094Z,19.44
2022-11-25T05:09:11.596Z,19.42
2022-11-25T05:11:15.952Z,19.41
2022-11-25T05:13:20.316Z,19.39
2022-11-25T05:15:24.686Z,19.39
2022-11-25T05:17:29.053Z,19.39
2022-11-25T05:19:33.412Z,19.41
2022-11-25T05:21:37.769Z,19.41
2022-11-25T05:23:42.115Z,19.42
2022-11-25T05:25:46.445Z,19.43
2022-11-25T05:27:50.790Z,19.43
2022-11-25T05:29:56.299Z,19.43
2022-11-25T05:32:00.755Z,19.43
2022-11-25T05:34:05.125Z,19.43
2022-11-25T05:36:09.542Z,19.42
2022-11-25T05:38:13.892Z,19.44
2022-11-25T05:40:18.232Z,19.5
2022-11-25T05:42:22.622Z,19.6
2022-11-25T05:44:26.975Z,19.67
2022-11-25T05:46:31.401Z,19.77
2022-11-25T05:48:36.226Z,19.84
2022-11-25T05:50:40.601Z,19.91
2022-11-25T05:52:44.977Z,19.98
2022-11-25T05:54:52.203Z,20.05
2022-11-25T05:57:01.112Z,20.11
2022-11-25T05:59:05.500Z,20.16
2022-11-25T06:01:09.905Z,20.23
2022-11-25T06:03:14.377Z,20.28
2022-11-25T06:05:19.241Z,20.32
2022-11-25T06:07:23.647Z,20.35
2022-11-25T06:09:28.288Z,20.39
2022-11-25T06:11:32.656Z,20.41
2022-11-25T06:13:37.007Z,20.45
2022-11-25T06:15:41.437Z,20.49
2022-11-25T06:17:45.929Z,20.53
2022-11-25T06:19:50.298Z,20.57
2022-11-25T06:21:54.716Z,20.61
2022-11-25T06:23:59.089Z,20.63
2022-11-25T06:26:03.444Z,20.66
2022-11-25T06:28:14.975Z,20.68
2022-11-25T06:30:19.629Z,20.69
2022-11-25T06:32:24.186Z,20.71
2022-11-25T06:34:28.557Z,20.71
2022-11-25T06:36:32.893Z,20.73
2022-11-25T06:38:37.253Z,20.74
2022-11-25T06:40:41.627Z,20.75
2022-11-25T06:42:46.028Z,20.76
2022-11-25T06:44:50.569Z,20.77
2022-11-25T06:46:54.965Z,20.78
2022-11-25T06:48:59.652Z,20.8
2022-11-25T06:51:04.017Z,20.81
2022-11-25T06:53:08.396Z,20.82
2022-11-25T06:55:12.709Z,20.83
2022-11-25T06:57:17.071Z,20.83
2022-11-25T06:59:21.439Z,20.85
2022-11-25T07:01:25.859Z,20.86
2022-11-25T07:03:30.580Z,20.88
2022-11-25T07:05:34.979Z,20.89
2022-11-25T07:07:39.343Z,20.9
2022-11-25T07:09:43.978Z,20.91
2022-11-25T07:11:48.325Z,20.92
2022-11-25T07:13:52.706Z,20.93
2022-11-25T07:15:57.173Z,20.94
2022-11-25T07:18:01.672Z,20.95
2022-11-25T07:20:06.062Z,20.97
2022-11-25T07:22:10.418Z,20.98
2022-11-25T07:24:14.823Z,20.99
2022-11-25T07:26:19.215Z,21
2022-11-25T07:28:23.621Z,21.02
2022-11-25T07:33:35.821Z,21.05
2022-11-25T07:35:40.326Z,21.07
2022-11-25T07:37:44.723Z,21.08
2022-11-25T07:39:49.207Z,21.09
2022-11-25T07:41:53.540Z,21.1
2022-11-25T07:43:57.922Z,21.11
2022-11-25T07:46:02.330Z,21.11
2022-11-25T07:48:06.915Z,21.12
2022-11-25T07:50:11.285Z,21.12
2022-11-25T07:52:15.611Z,21.13
2022-11-25T07:54:20.001Z,21.13
2022-11-25T07:56:24.353Z,21.13
2022-11-25T07:58:28.737Z,21.14
2022-11-25T08:00:33.129Z,21.14
2022-11-25T08:02:37.597Z,21.14
2022-11-25T08:04:42.305Z,21.15
2022-11-25T08:06:46.688Z,21.16
2022-11-25T08:08:51.096Z,21.17
2022-11-25T08:10:55.494Z,21.2
2022-11-25T08:12:59.903Z,21.2
2022-11-25T08:15:04.325Z,21.21
2022-11-25T08:17:08.730Z,21.22
2022-11-25T08:19:13.114Z,21.23
2022-11-25T08:21:17.641Z,21.23
2022-11-25T08:23:22.018Z,21.25
2022-11-25T08:25:26.428Z,21.26
2022-11-25T08:27:30.862Z,21.26
2022-11-25T08:29:35.538Z,21.28
2022-11-25T08:31:41.304Z,21.29
2022-11-25T08:33:46.196Z,21.31
2022-11-25T08:35:50.692Z,21.32
2022-11-25T08:37:55.063Z,21.33
2022-11-25T08:39:59.853Z,21.34
2022-11-25T08:42:04.977Z,21.35
2022-11-25T08:44:09.365Z,21.36
2022-11-25T08:46:13.823Z,21.37
2022-11-25T08:48:18.900Z,21.39
2022-11-25T08:50:23.287Z,21.4
2022-11-25T08:52:27.826Z,21.42
2022-11-25T08:54:32.235Z,21.43
2022-11-25T08:56:36.715Z,21.44
2022-11-25T08:58:41.125Z,21.45
2022-11-25T09:00:45.525Z,21.45
2022-11-25T09:02:50.064Z,21.46
2022-11-25T09:04:54.664Z,21.46
2022-11-25T09:06:59.078Z,21.46
2022-11-25T09:09:03.626Z,21.47
2022-11-25T09:11:08.046Z,21.46
2022-11-25T09:13:12.613Z,21.48
2022-11-25T09:15:16.957Z,21.47
2022-11-25T09:17:21.358Z,21.48
2022-11-25T09:19:25.738Z,21.48
2022-11-25T09:21:30.120Z,21.48
2022-11-25T09:23:34.478Z,21.49
2022-11-25T09:25:38.862Z,21.49
2022-11-25T09:27:43.364Z,21.49
2022-11-25T09:29:47.730Z,21.5
2022-11-25T09:31:54.883Z,21.5
2022-11-25T09:33:59.813Z,21.51
2022-11-25T09:36:04.197Z,21.51
2022-11-25T09:38:08.643Z,21.51
2022-11-25T09:40:13.060Z,21.53
2022-11-25T09:42:17.491Z,21.55
2022-11-25T09:44:21.905Z,21.56
2022-11-25T09:46:26.335Z,21.56
2022-11-25T09:48:30.990Z,21.56
2022-11-25T09:50:35.356Z,21.56
2022-11-25T09:52:39.775Z,21.56
2022-11-25T09:54:44.291Z,21.55
2022-11-25T09:56:48.658Z,21.56
2022-11-25T09:58:53.059Z,21.6
2022-11-25T10:00:57.440Z,21.62
2022-11-25T10:03:02.042Z,21.66
2022-11-25T10:05:06.821Z,21.68
2022-11-25T10:07:11.162Z,21.69
2022-11-25T10:09:15.537Z,21.7
2022-11-25T10:11:19.923Z,21.72
2022-11-25T10:13:24.317Z,21.72
2022-11-25T10:15:28.701Z,21.68
2022-11-25T10:17:33.120Z,21.6
2022-11-25T10:19:38.092Z,21.57
2022-11-25T10:21:42.989Z,21.57
2022-11-25T10:23:47.403Z,21.6
2022-11-25T10:25:51.743Z,21.62
2022-11-25T10:27:56.118Z,21.64
2022-11-25T10:30:00.497Z,21.67
2022-11-25T10:32:04.835Z,21.67
2022-11-25T10:34:09.269Z,21.71
2022-11-25T10:36:13.782Z,21.72
2022-11-25T10:38:19.236Z,21.73
2022-11-25T10:40:23.757Z,21.76
2022-11-25T10:42:28.237Z,21.79
2022-11-25T10:44:32.667Z,21.83
2022-11-25T10:46:57.370Z,21.87
2022-11-25T10:49:18.670Z,21.91
2022-11-25T10:51:23.337Z,21.94
2022-11-25T10:53:27.680Z,21.97
2022-11-25T10:55:32.155Z,22.01
2022-11-25T10:57:36.622Z,22.06
2022-11-25T10:59:41.107Z,22.1
2022-11-25T11:01:45.582Z,22.17
2022-11-25T11:03:50.213Z,22.23
2022-11-25T11:05:54.630Z,22.26
2022-11-25T11:07:59.074Z,22.26
2022-11-25T11:10:03.620Z,22.27
2022-11-25T11:12:07.980Z,22.29
2022-11-25T11:14:12.341Z,22.31
2022-11-25T11:16:16.799Z,22.33
2022-11-25T11:18:21.397Z,22.33
2022-11-25T11:20:25.916Z,22.34
2022-11-25T11:22:30.328Z,22.34
2022-11-25T11:24:35.041Z,22.35
2022-11-25T11:26:40.643Z,22.35
2022-11-25T11:31:29.876Z,22.36
2022-11-25T11:33:34.452Z,22.36
2022-11-25T11:35:41.748Z,22.35
2022-11-25T11:37:46.431Z,22.35
2022-11-25T11:39:50.787Z,22.35
2022-11-25T11:41:55.139Z,22.35
2022-11-25T11:43:59.530Z,22.34
2022-11-25T11:46:03.903Z,22.33
2022-11-25T11:48:08.295Z,22.33
2022-11-25T11:50:12.701Z,22.33
2022-11-25T11:52:17.201Z,22.31
2022-11-25T11:54:21.592Z,22.31
2022-11-25T11:56:41.345Z,22.31
2022-11-25T11:58:45.841Z,22.32
2022-11-25T12:00:50.176Z,22.32
2022-11-25T12:02:54.603Z,22.34
2022-11-25T12:04:59.284Z,22.34
2022-11-25T12:07:03.665Z,22.35
2022-11-25T12:09:08.056Z,22.36
2022-11-25T12:11:12.499Z,22.37
2022-11-25T12:13:16.872Z,22.37
2022-11-25T12:15:21.293Z,22.37
2022-11-25T12:17:25.648Z,22.36
2022-11-25T12:19:30.011Z,22.36
2022-11-25T12:21:37.444Z,22.36
2022-11-25T12:23:45.750Z,22.36
2022-11-25T12:25:50.149Z,22.36
2022-11-25T12:27:54.506Z,22.36
2022-11-25T12:29:58.917Z,22.36
2022-11-25T12:32:03.413Z,22.36
2022-11-25T12:34:08.125Z,22.36
2022-11-25T12:36:12.519Z,22.36
2022-11-25T12:38:16.939Z,22.36
2022-11-25T12:40:21.303Z,22.36
2022-11-25T12:42:25.764Z,22.37
2022-11-25T12:44:30.159Z,22.38
2022-11-25T12:46:34.526Z,22.39
2022-11-25T12:48:38.927Z,22.4
2022-11-25T12:50:43.336Z,22.41
2022-11-25T12:52:47.751Z,22.41
2022-11-25T12:54:52.174Z,22.41
2022-11-25T12:56:56.547Z,22.4
2022-11-25T12:59:01.074Z,22.41
2022-11-25T13:01:05.884Z,22.4
2022-11-25T13:03:13.853Z,22.4
2022-11-25T13:05:39.356Z,22.4
2022-11-25T13:07:44.948Z,22.4
2022-11-25T13:09:49.625Z,22.39
2022-11-25T13:11:54.288Z,22.4
2022-11-25T13:14:00.063Z,22.41
2022-11-25T13:16:06.029Z,22.39
2022-11-25T13:18:11.940Z,22.39
2022-11-25T13:20:16.646Z,22.4
2022-11-25T13:22:21.108Z,22.4
2022-11-25T13:24:25.499Z,22.4
2022-11-25T13:26:29.899Z,22.4
2022-11-25T13:28:34.302Z,22.41
2022-11-25T13:30:38.696Z,22.42
2022-11-25T13:32:43.113Z,22.41
2022-11-25T13:34:47.523Z,22.41
2022-11-25T13:36:51.935Z,22.41
2022-11-25T13:38:56.353Z,22.42
2022-11-25T13:41:00.719Z,22.43
2022-11-25T13:43:05.127Z,22.43
2022-11-25T13:45:09.485Z,22.43
2022-11-25T13:47:13.898Z,22.44
2022-11-25T13:49:18.340Z,22.44
2022-11-25T13:51:22.691Z,22.44
2022-11-25T13:53:27.289Z,22.45
2022-11-25T13:55:31.683Z,22.46
2022-11-25T13:57:36.055Z,22.48
2022-11-25T13:59:40.502Z,22.48
2022-11-25T14:01:44.890Z,22.49
2022-11-25T14:03:49.590Z,22.51
2022-11-25T14:05:53.973Z,22.51
2022-11-25T14:07:58.433Z,22.51
2022-11-25T14:10:02.997Z,22.51
2022-11-25T14:12:07.347Z,22.52
2022-11-25T14:14:11.710Z,22.54
2022-11-25T14:16:16.254Z,22.55
2022-11-25T14:18:31.440Z,22.58
2022-11-25T14:21:53.274Z,22.61
2022-11-25T14:23:57.647Z,22.62
2022-11-25T14:26:04.079Z,22.62
2022-11-25T14:28:51.742Z,22.64
2022-11-25T14:30:56.128Z,22.65
2022-11-25T14:33:00.505Z,22.63
2022-11-25T14:35:04.938Z,22.62
2022-11-25T14:37:09.306Z,22.61
2022-11-25T14:39:13.736Z,22.6
2022-11-25T14:41:18.134Z,22.61
2022-11-25T14:43:22.457Z,22.61
2022-11-25T14:45:26.911Z,22.62
2022-11-25T14:47:35.942Z,22.64
2022-11-25T14:49:49.102Z,22.66
2022-11-25T14:52:37.396Z,22.69
2022-11-25T14:54:41.780Z,22.71
2022-11-25T14:56:46.238Z,22.72
2022-11-25T14:58:50.582Z,22.73
2022-11-25T15:00:55.003Z,22.74
2022-11-25T15:02:59.368Z,22.75
2022-11-25T15:05:03.782Z,22.76
2022-11-25T15:07:08.162Z,22.77
2022-11-25T15:09:12.755Z,22.77
2022-11-25T15:11:17.152Z,22.79
2022-11-25T15:13:21.560Z,22.8
2022-11-25T15:15:25.921Z,22.8
2022-11-25T15:17:30.409Z,22.81
2022-11-25T15:19:35.280Z,22.8
2022-11-25T15:22:07.380Z,22.8
2022-11-25T15:24:28.145Z,22.82
2022-11-25T15:26:32.511Z,22.81
2022-11-25T15:28:36.937Z,22.83
2022-11-25T15:30:41.302Z,22.85
2022-11-25T15:32:45.750Z,22.86
2022-11-25T15:34:50.135Z,22.87
2022-11-25T15:36:54.831Z,22.89
2022-11-25T15:38:59.329Z,22.9
2022-11-25T15:41:03.839Z,22.91
2022-11-25T15:43:08.243Z,22.92
2022-11-25T15:45:12.603Z,22.92
2022-11-25T15:47:16.952Z,22.91
2022-11-25T15:49:21.387Z,22.91
2022-11-25T15:51:25.782Z,22.9
2022-11-25T15:53:33.281Z,22.91
2022-11-25T15:55:37.845Z,22.88
2022-11-25T15:57:42.180Z,22.89
2022-11-25T15:59:46.552Z,22.93
2022-11-25T16:01:51.035Z,22.94
2022-11-25T16:03:55.841Z,22.96
2022-11-25T16:06:00.218Z,22.98
2022-11-25T16:08:04.602Z,23
2022-11-25T16:10:08.990Z,23.02
2022-11-25T16:12:13.394Z,23.04
2022-11-25T16:14:18.059Z,23.06
2022-11-25T16:16:22.558Z,23.07
2022-11-25T16:18:39.596Z,23.08
2022-11-25T16:20:45.378Z,23.09
2022-11-25T16:22:49.767Z,23.1
2022-11-25T16:25:00.538Z,23.1
2022-11-25T16:27:06.763Z,23.11
2022-11-25T16:29:11.510Z,23.1
2022-11-25T16:31:15.978Z,23.13
2022-11-25T16:33:20.610Z,23.16
2022-11-25T16:35:25.121Z,23.17
2022-11-25T16:37:29.510Z,23.17
2022-11-25T16:39:33.907Z,23.16
2022-11-25T16:41:39.353Z,23.15
2022-11-25T16:43:43.721Z,23.12
2022-11-25T16:45:48.155Z,23.13
2022-11-25T16:47:52.652Z,23.11
2022-11-25T16:49:56.984Z,23.13
2022-11-25T16:52:01.435Z,23.15
2022-11-25T16:54:05.840Z,23.16
2022-11-25T16:56:10.268Z,23.13
2022-11-25T16:58:14.684Z,23.15
2022-11-25T17:00:19.044Z,23.14
2022-11-25T17:02:23.603Z,23.13
2022-11-25T17:04:28.661Z,23.14
2022-11-25T17:06:33.057Z,23.13
2022-11-25T17:08:37.483Z,23.13
2022-11-25T17:10:41.852Z,23.15
2022-11-25T17:12:46.288Z,23.13
2022-11-25T17:14:50.754Z,23.13
2022-11-25T17:16:55.734Z,23.12
2022-11-25T17:19:00.443Z,23.11
2022-11-25T17:21:05.263Z,23.12
2022-11-25T17:23:09.742Z,23.14
2022-11-25T17:25:14.141Z,23.15
2022-11-25T17:27:18.580Z,23.16
2022-11-25T17:29:22.967Z,23.17
2022-11-25T17:31:27.453Z,23.19
2022-11-25T17:33:32.014Z,23.22
2022-11-25T17:35:36.425Z,23.24
2022-11-25T17:37:40.827Z,23.26
2022-11-25T17:39:45.219Z,23.28
2022-11-25T17:41:49.595Z,23.3
2022-11-25T17:43:54.044Z,23.29
2022-11-25T17:45:58.748Z,23.3
2022-11-25T17:48:03.495Z,23.3
2022-11-25T17:50:07.910Z,23.3
2022-11-25T17:52:12.290Z,23.27
2022-11-25T17:54:16.683Z,23.29
2022-11-25T17:56:21.173Z,23.27
2022-11-25T17:58:25.607Z,23.29
2022-11-25T18:00:29.996Z,23.31
2022-11-25T18:02:34.391Z,23.32
2022-11-25T18:04:39.412Z,23.34
2022-11-25T18:06:44.024Z,23.36
2022-11-25T18:08:48.525Z,23.38
2022-11-25T18:10:52.977Z,23.38
2022-11-25T18:12:57.378Z,23.4
2022-11-25T18:15:01.740Z,23.4
2022-11-25T18:17:06.208Z,23.42
2022-11-25T18:19:10.760Z,23.44
2022-11-25T18:21:15.160Z,23.46
2022-11-25T18:23:19.545Z,23.46
2022-11-25T18:25:24.124Z,23.48
2022-11-25T18:27:28.503Z,23.48
2022-11-25T18:29:32.879Z,23.47
2022-11-25T18:31:37.289Z,23.44
2022-11-25T18:33:41.679Z,23.44
2022-11-25T18:35:46.082Z,23.41
2022-11-25T18:37:50.502Z,23.41
2022-11-25T18:39:54.886Z,23.41
2022-11-25T18:41:59.268Z,23.4
2022-11-25T18:44:03.740Z,23.4
2022-11-25T18:46:08.165Z,23.39
2022-11-25T18:48:12.670Z,23.38
2022-11-25T18:50:17.037Z,23.37
2022-11-25T18:52:21.428Z,23.36
2022-11-25T18:54:25.822Z,23.34
2022-11-25T18:56:30.166Z,23.33
2022-11-25T18:58:34.524Z,23.36
2022-11-25T19:00:38.916Z,23.38
2022-11-25T19:02:43.283Z,23.39
2022-11-25T19:04:47.858Z,23.42
2022-11-25T19:06:52.246Z,23.46
2022-11-25T19:08:56.626Z,23.49
2022-11-25T19:11:01.002Z,23.51
2022-11-25T19:13:05.376Z,23.51
2022-11-25T19:15:09.729Z,23.45
2022-11-25T19:17:18.324Z,23.37
2022-11-25T19:19:23.993Z,23.28
2022-11-25T19:21:28.367Z,23.2
2022-11-25T19:23:32.780Z,23.11
2022-11-25T19:25:37.146Z,23.05
2022-11-25T19:27:41.556Z,22.97
2022-11-25T19:29:45.918Z,22.92
2022-11-25T19:31:50.343Z,22.85
2022-11-25T19:33:54.825Z,22.77
2022-11-25T19:35:59.183Z,22.61
2022-11-25T19:38:03.579Z,22.48
2022-11-25T19:40:07.944Z,22.48
2022-11-25T19:42:12.346Z,22.5
2022-11-25T19:44:16.706Z,22.53
2022-11-25T19:46:27.160Z,22.59
2022-11-25T19:49:16.652Z,22.62
2022-11-25T19:51:20.981Z,22.67
2022-11-25T19:53:27.854Z,22.72
2022-11-25T19:55:37.827Z,22.77
2022-11-25T19:57:42.239Z,22.79
2022-11-25T19:59:46.588Z,22.82
2022-11-25T20:01:51.050Z,22.84
2022-11-25T20:03:55.665Z,22.87
2022-11-25T20:06:00.021Z,22.92
2022-11-25T20:08:04.422Z,22.96
2022-11-25T20:10:08.803Z,23
2022-11-25T20:12:13.482Z,23.02
2022-11-25T20:14:17.938Z,23.05
2022-11-25T20:16:22.387Z,23.07
2022-11-25T20:18:27.133Z,23.08
2022-11-25T20:20:31.631Z,23.07
2022-11-25T20:22:36.031Z,23.09
2022-11-25T20:24:40.453Z,23.12
2022-11-25T20:26:44.814Z,23.15
2022-11-25T20:28:49.258Z,23.17
2022-11-25T20:32:18.970Z,23.44
2022-11-25T20:34:23.620Z,23.38
2022-11-25T20:36:28.039Z,23.28
2022-11-25T20:38:32.454Z,23.16
2022-11-25T20:40:36.842Z,23.1
2022-11-25T20:42:41.209Z,23.06
2022-11-25T20:44:45.603Z,23.01
2022-11-25T20:46:49.943Z,22.98
2022-11-25T20:48:54.368Z,22.96
2022-11-25T20:50:59.067Z,22.93
2022-11-25T20:53:03.486Z,22.92
2022-11-25T20:55:07.857Z,22.89
2022-11-25T20:57:12.234Z,22.86
2022-11-25T20:59:16.589Z,22.83
2022-11-25T21:01:21.016Z,22.79
2022-11-25T21:03:25.593Z,22.78
2022-11-25T21:05:30.009Z,22.76
2022-11-25T21:07:34.486Z,22.74
2022-11-25T21:09:39.063Z,22.73
2022-11-25T21:11:43.447Z,22.7
2022-11-25T21:13:47.843Z,22.68
2022-11-25T21:15:52.282Z,22.67
2022-11-25T21:17:56.981Z,22.66
2022-11-25T21:20:01.396Z,22.64
2022-11-25T21:22:05.842Z,22.61
2022-11-25T21:24:10.210Z,22.59
2022-11-25T21:26:14.647Z,22.56
2022-11-25T21:28:19.038Z,22.55
2022-11-25T21:30:23.427Z,22.54
2022-11-25T21:32:27.863Z,22.53
2022-11-25T21:34:32.244Z,22.52
2022-11-25T21:36:36.665Z,22.51
2022-11-25T21:38:41.067Z,22.51
2022-11-25T21:40:45.462Z,22.51
2022-11-25T21:42:49.831Z,22.52
2022-11-25T21:44:54.273Z,22.49
2022-11-25T21:46:58.639Z,22.45
2022-11-25T21:49:03.021Z,22.41
2022-11-25T21:51:07.437Z,22.33
2022-11-25T21:53:11.909Z,22.27
2022-11-25T21:55:16.499Z,22.2
2022-11-25T21:57:20.906Z,22.12
2022-11-25T21:59:25.313Z,22.06
2022-11-25T22:01:29.880Z,21.99
2022-11-25T22:03:34.533Z,21.94
2022-11-25T22:05:38.902Z,21.9
2022-11-25T22:07:43.343Z,21.86
2022-11-25T22:09:47.940Z,21.83
2022-11-25T22:11:52.315Z,21.82
2022-11-25T22:13:56.688Z,21.81
2022-11-25T22:16:01.084Z,21.78
2022-11-25T22:18:05.695Z,21.73
2022-11-25T22:20:10.092Z,21.73
2022-11-25T22:22:14.453Z,21.73
2022-11-25T22:24:18.868Z,21.71
2022-11-25T22:26:23.269Z,21.67
2022-11-25T22:28:27.662Z,21.64
2022-11-25T22:30:32.041Z,21.61
2022-11-25T22:32:36.411Z,21.58
2022-11-25T22:34:40.924Z,21.55
2022-11-25T22:36:45.404Z,21.52
2022-11-25T22:38:49.792Z,21.5
2022-11-25T22:40:54.261Z,21.47
2022-11-25T22:42:58.677Z,21.44
2022-11-25T22:45:03.073Z,21.41
2022-11-25T22:47:07.460Z,21.4
2022-11-25T22:49:11.845Z,21.36
2022-11-25T22:51:16.257Z,21.34
2022-11-25T22:53:20.720Z,21.32
2022-11-25T22:55:25.120Z,21.3
2022-11-25T22:57:29.506Z,21.27
2022-11-25T22:59:33.900Z,21.26
2022-11-25T23:01:38.281Z,21.23
2022-11-25T23:03:42.857Z,21.19
2022-11-25T23:05:47.249Z,21.15
2022-11-25T23:07:51.799Z,21.13
2022-11-25T23:09:56.454Z,21.1
2022-11-25T23:12:00.833Z,21.06
2022-11-25T23:14:05.212Z,21.04
2022-11-25T23:16:09.609Z,21.01
2022-11-25T23:18:14.241Z,20.99
2022-11-25T23:20:18.597Z,20.98
2022-11-25T23:22:22.999Z,20.96
2022-11-25T23:24:27.367Z,20.94
2022-11-25T23:26:34.948Z,20.93
2022-11-25T23:28:39.570Z,20.92
2022-11-25T23:30:43.925Z,20.91
2022-11-25T23:32:48.322Z,20.88
2022-11-25T23:34:52.717Z,20.87
2022-11-25T23:36:57.162Z,20.88
2022-11-25T23:39:01.556Z,20.86
2022-11-25T23:41:05.936Z,20.84
2022-11-25T23:43:10.301Z,20.85
2022-11-25T23:45:14.682Z,20.85
2022-11-25T23:47:19.045Z,20.84
2022-11-25T23:49:23.455Z,20.83
2022-11-25T23:51:27.854Z,20.81
2022-11-25T23:53:32.204Z,20.8
2022-11-25T23:55:36.670Z,20.78
2022-11-25T23:57:41.035Z,20.77
2022-11-25T23:59:45.529Z,20.76
